Time;durP1;ratioP1;P1;durP2;ratioP2;P2;SDS_P1;SDS_P2;PMS_P1;PMS_P2;Temp;Humidity;BMP_temperature;BMP_pressure;BME280_temperature;BME280_humidity;BME280_pressure;Samples;Min_cycle;Max_cycle;Signal;HPM_P1;HPM_P2
2023/10/07 00:02:51;;;;;;;5.37;3.03;;;;;;;18.51;68.19;101239.72;5048951;28;20418;-58
2023/10/07 00:05:17;;;;;;;5.80;2.87;;;;;;;18.52;68.59;101240.56;5051062;28;20446;-58
2023/10/07 00:07:46;;;;;;;4.10;2.60;;;;;;;18.51;68.38;101241.75;5049043;28;20194;-59
2023/10/07 00:10:15;;;;;;;6.07;3.47;;;;;;;18.50;68.23;101243.78;5048855;28;21062;-59
2023/10/07 00:12:42;;;;;;;4.50;2.60;;;;;;;18.51;68.08;101238.91;5048753;28;20421;-58
2023/10/07 00:15:11;;;;;;;4.33;2.27;;;;;;;18.50;68.35;101226.63;5051154;28;20465;-58
2023/10/07 00:17:42;;;;;;;5.53;3.10;;;;;;;18.49;68.36;101233.53;5048625;28;20437;-59
2023/10/07 00:20:11;;;;;;;4.53;2.60;;;;;;;18.49;68.37;101229.81;5048255;28;20477;-58
2023/10/07 00:22:41;;;;;;;4.50;2.47;;;;;;;18.49;68.12;101226.97;5046885;28;20458;-57
2023/10/07 00:25:13;;;;;;;5.27;2.90;;;;;;;18.48;68.27;101236.75;5050085;28;20797;-58
2023/10/07 00:27:41;;;;;;;5.40;2.77;;;;;;;18.49;68.37;101224.94;5047758;28;20493;-58
2023/10/07 00:30:13;;;;;;;3.73;2.40;;;;;;;18.48;68.45;101229.00;5049691;28;20446;-58
2023/10/07 00:32:39;;;;;;;6.10;3.00;;;;;;;18.49;68.54;101229.81;5047431;28;20478;-58
2023/10/07 00:35:06;;;;;;;5.70;3.30;;;;;;;18.49;68.35;101224.09;5051491;28;20437;-59
2023/10/07 00:37:35;;;;;;;7.13;2.30;;;;;;;18.48;68.01;101219.59;5068133;28;20414;-59
2023/10/07 00:40:14;;;;;;;4.70;2.63;;;;;;;18.48;68.24;101220.44;5067420;28;20958;-58
2023/10/07 00:42:45;;;;;;;5.10;2.70;;;;;;;18.47;68.37;101215.88;5054633;28;20438;-59
2023/10/07 00:45:16;;;;;;;4.10;2.43;;;;;;;18.47;68.17;101210.16;5048336;28;21347;-58
2023/10/07 00:47:42;;;;;;;6.40;2.90;;;;;;;18.47;68.03;101206.50;5056903;28;20435;-58
2023/10/07 00:50:09;;;;;;;5.70;3.07;;;;;;;18.47;68.10;101206.50;5062955;28;20434;-59
2023/10/07 00:52:41;;;;;;;4.00;2.50;;;;;;;18.48;68.58;101211.00;5064289;28;20539;-59
2023/10/07 01:00:48;;;;;;;3.87;2.30;;;;;;;18.46;68.17;101191.34;5068033;28;20916;-59
2023/10/07 01:03:31;;;;;;;3.97;2.57;;;;;;;18.47;68.22;101195.88;5066574;28;20193;-59
2023/10/07 01:08:34;;;;;;;4.50;2.57;;;;;;;18.46;68.03;101188.47;5064106;28;20422;-59
2023/10/07 01:13:50;;;;;;;4.40;2.37;;;;;;;18.46;68.52;101181.94;5046288;28;20486;-58
2023/10/07 01:16:26;;;;;;;5.73;3.30;;;;;;;18.46;68.02;101179.91;5046355;28;20406;-59
2023/10/07 01:18:59;;;;;;;3.90;2.50;;;;;;;18.46;68.40;101179.09;5047889;28;20488;-59
2023/10/07 01:21:31;;;;;;;4.53;2.40;;;;;;;18.46;68.08;101187.66;5048851;28;20515;-58
2023/10/07 01:23:58;;;;;;;5.03;2.83;;;;;;;18.45;68.25;101185.97;5043529;28;20852;-59
2023/10/07 01:26:29;;;;;;;5.07;2.73;;;;;;;18.45;68.14;101183.97;5048281;28;20481;-59
2023/10/07 01:29:11;;;;;;;4.67;2.67;;;;;;;18.44;68.22;101176.59;5045597;28;20513;-59
2023/10/07 01:31:40;;;;;;;6.37;2.90;;;;;;;18.44;68.00;101173.72;5048881;28;20444;-58
2023/10/07 01:34:08;;;;;;;4.57;2.40;;;;;;;18.45;68.19;101171.69;5067925;28;20499;-58
2023/10/07 01:36:35;;;;;;;4.97;2.67;;;;;;;18.45;68.04;101171.69;5067675;28;20466;-59
2023/10/07 01:39:01;;;;;;;4.30;2.70;;;;;;;18.45;68.17;101171.69;5060324;28;21240;-58
2023/10/07 01:41:31;;;;;;;4.40;2.70;;;;;;;18.44;67.93;101175.75;5062714;28;20429;-58
2023/10/07 01:46:28;;;;;;;4.47;2.40;;;;;;;18.43;68.31;101177.78;5049979;28;20461;-59
2023/10/07 01:48:57;;;;;;;5.00;2.80;;;;;;;18.43;68.17;101180.66;5049832;28;20188;-59
2023/10/07 01:51:26;;;;;;;5.43;2.80;;;;;;;18.43;68.08;101186.38;5061906;28;20464;-59
2023/10/07 01:53:56;;;;;;;4.77;2.60;;;;;;;18.43;68.12;101185.50;5067569;28;20892;-58
2023/10/07 01:56:26;;;;;;;3.37;2.20;;;;;;;18.42;68.23;101183.84;5052734;28;20448;-58
2023/10/07 01:58:54;;;;;;;4.30;2.23;;;;;;;18.42;67.93;101187.53;5047494;28;20517;-58
2023/10/07 02:01:21;;;;;;;4.53;2.93;;;;;;;18.43;68.15;101188.38;5047477;28;20418;-58
2023/10/07 02:03:47;;;;;;;4.53;2.63;;;;;;;18.42;68.02;101196.09;5049528;28;20515;-58
2023/10/07 02:06:18;;;;;;;5.23;2.63;;;;;;;18.42;68.18;101198.97;5047250;28;20546;-58
2023/10/07 02:08:44;;;;;;;3.77;2.20;;;;;;;18.42;68.11;101198.97;5049892;28;21386;-58
2023/10/07 02:11:09;;;;;;;3.80;2.33;;;;;;;18.41;68.02;101200.16;5047267;28;20437;-58
2023/10/07 02:13:35;;;;;;;3.93;2.20;;;;;;;18.42;68.40;101209.59;5049896;28;20837;-59
2023/10/07 02:16:04;;;;;;;4.87;2.73;;;;;;;18.41;68.05;101211.59;5050401;28;20203;-58
2023/10/07 02:18:35;;;;;;;4.50;2.60;;;;;;;18.41;68.23;101208.75;5050316;28;20561;-58
2023/10/07 02:21:12;;;;;;;3.90;2.47;;;;;;;18.41;68.07;101207.94;5052618;28;20525;-58
2023/10/07 02:23:40;;;;;;;5.77;2.70;;;;;;;18.41;68.22;101208.75;5050005;28;20424;-59
2023/10/07 02:26:06;;;;;;;5.63;3.23;;;;;;;18.40;68.25;101215.66;5049922;28;20553;-58
2023/10/07 02:28:34;;;;;;;4.40;2.40;;;;;;;18.40;68.06;101212.78;5051082;28;20986;-57
2023/10/07 02:31:07;;;;;;;3.80;2.43;;;;;;;18.40;67.96;101221.38;5053068;28;20879;-59
2023/10/07 02:33:41;;;;;;;4.50;2.57;;;;;;;18.41;68.17;101225.91;5050893;28;20414;-58
2023/10/07 02:36:12;;;;;;;3.57;2.20;;;;;;;18.40;68.03;101241.38;5052948;28;20897;-58
2023/10/07 02:38:41;;;;;;;5.83;2.97;;;;;;;18.41;68.03;101242.22;5051026;28;20410;-58
2023/10/07 02:41:24;;;;;;;5.53;2.60;;;;;;;18.40;68.21;101227.09;5050542;28;20540;-58
2023/10/07 02:43:50;;;;;;;4.90;2.43;;;;;;;18.40;68.19;101223.38;5051798;28;20440;-59
2023/10/07 02:46:31;;;;;;;4.90;2.70;;;;;;;18.39;68.04;101228.28;5049954;28;21175;-58
2023/10/07 02:49:01;;;;;;;4.10;2.47;;;;;;;18.39;68.08;101228.28;5049768;28;20184;-59
2023/10/07 02:51:27;;;;;;;5.87;2.70;;;;;;;18.39;68.16;101228.28;5052010;28;20528;-58
2023/10/07 02:54:03;;;;;;;4.73;2.60;;;;;;;18.38;68.13;101220.91;5049835;28;20517;-58
2023/10/07 02:56:43;;;;;;;4.60;2.50;;;;;;;18.39;68.04;101216.00;5064875;28;20275;-58
2023/10/07 02:59:22;;;;;;;3.70;2.20;;;;;;;18.37;67.85;101216.38;5054338;28;20487;-59
2023/10/07 03:02:12;;;;;;;5.20;2.87;;;;;;;18.38;68.14;101218.06;5060768;28;20424;-58
2023/10/07 03:04:35;;;;;;;3.60;2.10;;;;;;;18.37;68.34;101224.94;5066943;28;20457;-58
2023/10/07 03:07:00;;;;;;;3.73;2.13;;;;;;;18.38;68.17;101234.34;5069253;28;20546;-59
2023/10/07 03:09:33;;;;;;;3.57;2.10;;;;;;;18.38;68.11;101237.22;5068084;28;20430;-58
2023/10/07 03:12:02;;;;;;;4.63;2.40;;;;;;;18.37;68.25;101236.38;5061612;28;20341;-58
2023/10/07 03:14:28;;;;;;;5.03;2.73;;;;;;;18.37;68.27;101247.81;5067659;28;20449;-59
2023/10/07 03:17:15;;;;;;;4.67;2.50;;;;;;;18.38;68.11;101257.22;5057179;28;20881;-59
2023/10/07 03:19:56;;;;;;;4.40;2.47;;;;;;;18.37;67.89;101267.00;5049503;28;20231;-59
2023/10/07 03:22:29;;;;;;;4.10;2.43;;;;;;;18.37;68.06;101259.25;5049661;28;20531;-58
2023/10/07 03:25:00;;;;;;;4.77;2.50;;;;;;;18.38;68.20;101265.81;5062537;28;20446;-58
2023/10/07 03:27:26;;;;;;;3.90;2.50;;;;;;;18.37;68.01;101272.72;5049881;28;20470;-59
2023/10/07 03:32:57;;;;;;;5.03;2.47;;;;;;;18.36;67.85;101257.59;5047414;28;20454;-58
2023/10/07 03:38:10;;;;;;;4.73;2.60;;;;;;;18.35;68.02;101267.34;5068349;28;20559;-58
2023/10/07 03:40:37;;;;;;;4.50;2.60;;;;;;;18.35;68.21;101258.78;5059124;28;20553;-59
2023/10/07 03:43:04;;;;;;;4.43;2.30;;;;;;;18.36;68.22;101260.44;5055419;28;20409;-58
2023/10/07 03:45:29;;;;;;;5.30;2.70;;;;;;;18.35;68.34;101266.50;5056349;28;20449;-58
2023/10/07 03:47:57;;;;;;;3.73;2.40;;;;;;;18.35;68.27;101275.09;5068448;28;20434;-59
2023/10/07 03:50:34;;;;;;;5.40;2.83;;;;;;;18.35;68.14;101269.38;5060943;28;20693;-57
2023/10/07 03:53:01;;;;;;;4.37;2.40;;;;;;;18.34;68.20;101262.84;5049549;28;20509;-58
2023/10/07 03:55:28;;;;;;;4.00;2.30;;;;;;;18.34;68.07;101247.69;5058567;28;20429;-59
2023/10/07 03:57:55;;;;;;;5.43;3.03;;;;;;;18.34;68.14;101239.13;5067777;28;20433;-58
2023/10/07 04:00:20;;;;;;;4.97;2.60;;;;;;;18.33;68.03;101226.88;5068890;28;20440;-58
2023/10/07 04:02:47;;;;;;;3.70;2.30;;;;;;;18.34;68.10;101228.53;5057542;28;20437;-58
2023/10/07 04:05:13;;;;;;;5.67;2.60;;;;;;;18.33;67.86;101231.75;5047859;28;20597;-58
2023/10/07 04:07:39;;;;;;;4.33;2.70;;;;;;;18.33;67.75;101235.44;5049088;28;20525;-58
2023/10/07 04:12:47;;;;;;;5.20;2.73;;;;;;;18.34;68.14;101233.41;5067780;28;20908;-58
2023/10/07 04:15:16;;;;;;;3.50;1.97;;;;;;;18.33;68.17;101231.75;5065900;28;20433;-57
2023/10/07 04:17:42;;;;;;;4.47;2.67;;;;;;;18.31;67.95;101228.38;5059739;28;20434;-59
2023/10/07 04:20:18;;;;;;;4.47;2.57;;;;;;;18.31;68.21;101223.47;5049017;28;20482;-58
2023/10/07 04:22:57;;;;;;;4.23;2.23;;;;;;;18.31;68.18;101226.34;5048657;28;20410;-58
2023/10/07 04:25:24;;;;;;;4.53;2.50;;;;;;;18.31;68.18;101217.75;5047475;28;20415;-58
2023/10/07 04:27:53;;;;;;;5.60;2.97;;;;;;;18.31;68.31;101214.09;5050208;28;20473;-58
2023/10/07 04:30:27;;;;;;;4.53;2.40;;;;;;;18.31;68.00;101216.94;5050283;28;20426;-59
2023/10/07 04:33:00;;;;;;;4.50;2.70;;;;;;;18.31;68.16;101231.25;5053278;28;20441;-59
2023/10/07 04:35:27;;;;;;;4.50;2.47;;;;;;;18.30;68.19;101233.25;5067045;28;20421;-59
2023/10/07 04:37:59;;;;;;;5.40;2.90;;;;;;;18.30;68.35;101230.41;5063841;28;20546;-58
2023/10/07 04:43:25;;;;;;;5.40;3.10;;;;;;;18.29;68.50;101227.88;5068224;28;20453;-59
2023/10/07 04:45:53;;;;;;;3.70;2.20;;;;;;;18.29;67.87;101239.31;5059779;28;20196;-58
2023/10/07 04:48:40;;;;;;;3.70;2.20;;;;;;;18.29;67.96;101245.88;5048083;28;20418;-58
2023/10/07 04:51:12;;;;;;;4.00;2.33;;;;;;;18.29;68.12;101234.44;5047988;28;20414;-57
2023/10/07 04:53:38;;;;;;;4.60;2.60;;;;;;;18.29;67.90;101230.75;5048064;28;20394;-58
2023/10/07 04:56:07;;;;;;;4.70;2.70;;;;;;;18.27;68.20;101239.66;5050196;28;20433;-59
2023/10/07 04:58:33;;;;;;;4.47;2.23;;;;;;;18.28;67.98;101249.09;5049926;28;20426;-58
2023/10/07 05:02:01;;;;;;;5.50;2.43;;;;;;;18.28;68.09;101269.94;5059644;28;20441;-59
2023/10/07 05:03:55;;;;;;;3.63;2.07;;;;;;;18.27;68.16;101262.53;5047408;28;20210;-58
2023/10/07 05:06:24;;;;;;;4.47;2.17;;;;;;;18.27;68.06;101256.81;5050406;28;20469;-58
2023/10/07 05:08:49;;;;;;;5.00;2.30;;;;;;;18.28;67.85;101271.97;5047095;28;20931;-58
2023/10/07 05:11:18;;;;;;;4.13;2.40;;;;;;;18.27;67.63;101282.53;5049137;28;20548;-58
2023/10/07 05:13:45;;;;;;;3.73;2.27;;;;;;;18.27;68.09;101273.16;5064669;28;20210;-58
2023/10/07 05:16:13;;;;;;;3.40;1.90;;;;;;;18.26;67.74;101269.44;5062287;28;20446;-58
2023/10/07 05:18:39;;;;;;;4.80;2.10;;;;;;;18.27;67.90;101267.44;5067184;28;20522;-59
2023/10/07 05:21:04;;;;;;;4.27;2.43;;;;;;;18.25;68.08;101267.78;5066842;28;20418;-58
2023/10/07 05:23:31;;;;;;;4.23;2.50;;;;;;;18.25;67.93;101270.66;5064975;28;20187;-58
2023/10/07 05:26:03;;;;;;;5.37;3.10;;;;;;;18.26;67.84;101277.22;5062676;28;20219;-58
2023/10/07 05:28:30;;;;;;;4.73;2.80;;;;;;;18.26;68.06;101268.63;5047733;28;20437;-57
2023/10/07 05:30:57;;;;;;;3.90;2.10;;;;;;;18.25;67.98;101272.66;5051497;28;20647;-58
2023/10/07 05:33:26;;;;;;;5.90;2.77;;;;;;;18.24;67.96;101280.41;5067625;28;20510;-57
2023/10/07 05:36:14;;;;;;;4.20;2.37;;;;;;;18.24;67.98;101273.84;5065970;28;20406;-58
2023/10/07 05:38:40;;;;;;;4.77;2.70;;;;;;;18.24;67.67;101274.69;5047676;28;20799;-58
2023/10/07 05:41:06;;;;;;;4.33;2.40;;;;;;;18.23;67.91;101275.06;5054500;28;20466;-58
2023/10/07 05:43:32;;;;;;;3.73;2.30;;;;;;;18.24;67.88;101266.13;5064032;28;20532;-58
2023/10/07 05:45:59;;;;;;;4.80;2.40;;;;;;;18.23;68.00;101261.59;5061941;28;20889;-59
2023/10/07 05:48:25;;;;;;;4.00;2.33;;;;;;;18.24;67.89;101266.13;5062235;28;20948;-58
2023/10/07 05:50:54;;;;;;;4.83;2.57;;;;;;;18.24;67.75;101263.28;5051355;28;20894;-58
2023/10/07 05:53:20;;;;;;;4.37;2.83;;;;;;;18.23;68.01;101257.91;5052204;28;20497;-58
2023/10/07 05:55:46;;;;;;;3.23;2.00;;;;;;;18.22;68.03;101262.78;5055711;28;20495;-58
2023/10/07 05:58:12;;;;;;;3.80;1.87;;;;;;;18.22;67.88;101248.47;5054757;28;20939;-57
2023/10/07 06:00:38;;;;;;;6.10;2.97;;;;;;;18.22;67.74;101245.63;5050400;28;20437;-58
2023/10/07 06:03:08;;;;;;;4.17;2.30;;;;;;;18.22;68.02;101250.53;5050178;28;20399;-58
2023/10/07 06:05:37;;;;;;;4.50;2.50;;;;;;;18.22;67.78;101250.53;5050268;28;20171;-57
2023/10/07 06:08:04;;;;;;;3.73;2.47;;;;;;;18.22;68.10;101268.50;5052300;28;20958;-58
2023/10/07 06:10:33;;;;;;;4.37;2.27;;;;;;;18.22;67.98;101271.34;5050735;28;20946;-58
2023/10/07 06:12:58;;;;;;;4.87;2.57;;;;;;;18.22;67.76;101274.22;5053689;28;20845;-59
2023/10/07 06:15:24;;;;;;;4.13;2.37;;;;;;;18.22;67.87;101274.22;5051049;28;20487;-59
2023/10/07 06:17:50;;;;;;;4.80;2.60;;;;;;;18.20;67.83;101279.44;5050640;28;20210;-58
2023/10/07 06:20:15;;;;;;;4.80;2.63;;;;;;;18.22;67.84;101284.81;5048249;28;20228;-58
2023/10/07 06:22:48;;;;;;;3.50;1.90;;;;;;;18.21;68.07;101281.13;5052652;28;20256;-59
2023/10/07 06:25:15;;;;;;;4.03;2.30;;;;;;;18.21;67.89;101275.41;5049443;28;20152;-58
2023/10/07 06:27:43;;;;;;;3.40;2.20;;;;;;;18.22;67.97;101293.41;5047485;28;20489;-58
2023/10/07 06:30:11;;;;;;;3.60;2.03;;;;;;;18.20;67.96;101290.03;5049041;28;20776;-58
2023/10/07 06:32:49;;;;;;;4.67;2.57;;;;;;;18.21;68.03;101288.88;5051926;28;20438;-58
2023/10/07 06:35:21;;;;;;;3.90;2.37;;;;;;;18.20;67.93;101285.16;5050060;28;20425;-57
2023/10/07 06:37:46;;;;;;;5.03;2.50;;;;;;;18.20;67.98;101293.75;5059873;28;20907;-58
2023/10/07 06:40:31;;;;;;;4.77;2.70;;;;;;;18.20;67.83;101301.47;5069681;28;20433;-58
2023/10/07 06:42:58;;;;;;;4.83;2.47;;;;;;;18.21;67.81;101308.88;5066058;28;20183;-58
2023/10/07 06:45:29;;;;;;;3.87;2.17;;;;;;;18.19;67.94;101309.22;5066099;28;20434;-58
2023/10/07 06:47:59;;;;;;;3.80;2.17;;;;;;;18.19;67.73;101314.09;5050010;28;20466;-58
2023/10/07 06:50:27;;;;;;;3.37;1.77;;;;;;;18.20;67.49;101310.91;5065483;28;20445;-57
2023/10/07 06:52:55;;;;;;;3.93;2.17;;;;;;;18.19;67.71;101309.22;5054811;28;20433;-58
2023/10/07 06:55:22;;;;;;;4.50;2.57;;;;;;;18.18;67.76;101301.84;5059749;28;20908;-58
2023/10/07 06:57:48;;;;;;;5.10;2.60;;;;;;;18.20;67.95;101313.75;5067600;28;20433;-57
2023/10/07 07:00:37;;;;;;;3.90;2.50;;;;;;;18.19;67.58;101309.22;5049262;28;20436;-59
2023/10/07 07:03:09;;;;;;;4.60;2.60;;;;;;;18.18;67.80;101310.44;5048294;28;20395;-59
2023/10/07 07:05:35;;;;;;;5.20;2.63;;;;;;;18.19;67.71;101323.53;5049075;28;20506;-58
2023/10/07 07:08:03;;;;;;;4.40;2.63;;;;;;;18.18;67.67;101313.28;5051999;28;20808;-57
2023/10/07 07:10:30;;;;;;;3.90;2.20;;;;;;;18.19;68.46;101328.38;5054071;28;20222;-58
2023/10/07 07:13:04;;;;;;;4.93;2.40;;;;;;;18.18;67.65;101330.44;5067122;28;20488;-58
2023/10/07 07:15:36;;;;;;;6.13;2.77;;;;;;;18.18;68.02;101330.44;5048452;28;20410;-58
2023/10/07 07:18:14;;;;;;;4.47;2.30;;;;;;;18.17;67.99;101320.16;5049721;28;20460;-58
2023/10/07 07:21:00;;;;;;;5.30;2.53;;;;;;;18.18;67.83;101321.84;5049741;28;20482;-58
2023/10/07 07:23:32;;;;;;;4.43;2.50;;;;;;;18.18;67.79;101318.16;5053169;28;20928;-58
2023/10/07 07:28:30;;;;;;;3.30;2.10;;;;;;;18.16;67.99;101317.69;5069860;28;20775;-58
2023/10/07 07:30:59;;;;;;;3.70;2.13;;;;;;;18.17;67.93;101323.03;5069454;28;20428;-59
2023/10/07 07:33:34;;;;;;;4.50;2.87;;;;;;;18.18;67.85;101327.56;5053858;28;21050;-57
2023/10/07 07:36:03;;;;;;;4.13;2.47;;;;;;;18.18;67.91;101323.88;5050273;28;20452;-58
2023/10/07 07:38:41;;;;;;;5.37;2.73;;;;;;;18.17;68.00;101317.31;5060711;28;20445;-58
2023/10/07 07:41:26;;;;;;;3.90;2.10;;;;;;;18.17;67.94;101313.63;5054723;28;20426;-58
2023/10/07 07:43:53;;;;;;;3.40;2.00;;;;;;;18.17;67.76;101323.03;5051902;28;20452;-58
2023/10/07 07:46:26;;;;;;;4.50;2.50;;;;;;;18.17;67.90;101320.16;5048693;28;20450;-58
2023/10/07 07:48:52;;;;;;;4.00;2.70;;;;;;;18.17;67.79;101334.44;5059243;28;20421;-57
2023/10/07 07:51:18;;;;;;;4.50;2.37;;;;;;;18.18;67.90;101336.16;5067229;28;20409;-59
2023/10/07 07:53:43;;;;;;;4.20;2.33;;;;;;;18.17;67.94;101337.31;5063955;28;20437;-58
2023/10/07 07:56:12;;;;;;;3.73;2.27;;;;;;;18.17;67.85;101322.22;5050543;28;20172;-58
2023/10/07 07:58:52;;;;;;;3.70;2.03;;;;;;;18.18;67.75;101315.28;5047429;28;20642;-58
2023/10/07 08:01:28;;;;;;;4.13;2.30;;;;;;;18.17;67.95;101303.00;5054348;28;20425;-57
2023/10/07 08:03:55;;;;;;;4.33;2.43;;;;;;;18.16;67.87;101298.50;5048230;28;20414;-57
2023/10/07 08:06:21;;;;;;;4.83;2.40;;;;;;;18.15;67.85;101308.25;5048556;28;20588;-58
2023/10/07 08:08:49;;;;;;;4.30;2.60;;;;;;;18.16;67.74;101317.69;5048878;28;20459;-58
2023/10/07 08:11:17;;;;;;;4.40;2.83;;;;;;;18.16;68.21;101301.34;5061027;28;20183;-58
2023/10/07 08:13:43;;;;;;;4.63;2.00;;;;;;;18.15;67.86;101305.41;5048674;28;20932;-58
2023/10/07 08:16:15;;;;;;;4.40;2.30;;;;;;;18.16;68.14;101315.63;5048620;28;21181;-58
2023/10/07 08:18:41;;;;;;;3.73;2.30;;;;;;;18.17;67.83;101325.88;5048256;28;20473;-58
2023/10/07 08:21:07;;;;;;;5.63;2.70;;;;;;;18.16;67.92;101314.81;5065319;28;20429;-58
2023/10/07 08:23:44;;;;;;;3.90;2.30;;;;;;;18.16;67.78;101324.22;5062643;28;20445;-58
2023/10/07 08:26:12;;;;;;;4.10;2.27;;;;;;;18.17;67.64;101320.16;5067281;28;20203;-59
2023/10/07 08:28:42;;;;;;;5.60;2.73;;;;;;;18.16;67.88;101324.22;5063704;28;20901;-59
2023/10/07 08:31:17;;;;;;;4.63;2.73;;;;;;;18.16;67.67;101334.84;5047500;28;20445;-58
2023/10/07 08:33:53;;;;;;;5.53;2.40;;;;;;;18.16;67.81;101331.97;5047262;28;20425;-58
2023/10/07 08:36:27;;;;;;;3.33;2.03;;;;;;;18.16;67.60;101326.25;5067354;28;20421;-58
2023/10/07 08:38:53;;;;;;;4.00;2.07;;;;;;;18.15;68.09;101327.41;5054502;28;20441;-57
2023/10/07 08:41:18;;;;;;;4.67;2.70;;;;;;;18.13;67.72;101318.38;5047867;28;20436;-58
2023/10/07 08:43:45;;;;;;;7.33;3.03;;;;;;;18.08;67.64;101321.47;5049438;28;20866;-58
2023/10/07 08:46:16;;;;;;;6.53;3.40;;;;;;;18.05;67.11;101323.00;5047140;28;20726;-58
2023/10/07 08:48:58;;;;;;;7.77;3.30;;;;;;;18.07;65.95;101322.66;5045750;28;20469;-58
2023/10/07 08:51:24;;;;;;;8.97;4.10;;;;;;;18.08;65.87;101330.88;5046973;28;20810;-58
2023/10/07 08:53:57;;;;;;;8.90;3.60;;;;;;;18.09;65.76;101329.69;5049756;28;20441;-58
2023/10/07 08:56:23;;;;;;;7.27;3.50;;;;;;;18.11;66.13;101324.44;5061705;28;20180;-58
2023/10/07 08:58:49;;;;;;;9.53;3.83;;;;;;;18.11;66.00;101333.00;5063573;28;20440;-58
2023/10/07 09:01:18;;;;;;;6.13;4.03;;;;;;;18.13;66.15;101342.09;5067048;28;20174;-59
2023/10/07 09:03:50;;;;;;;7.53;3.70;;;;;;;18.13;66.48;101336.38;5061399;28;20449;-58
2023/10/07 09:06:16;;;;;;;7.03;3.03;;;;;;;18.13;66.48;101327.81;5066139;28;20468;-58
2023/10/07 09:08:43;;;;;;;6.20;3.27;;;;;;;18.12;66.39;101328.97;5054412;28;20435;-58
2023/10/07 09:11:12;;;;;;;7.33;4.03;;;;;;;18.11;66.55;101330.16;5047018;28;20426;-58
2023/10/07 09:13:38;;;;;;;10.00;3.60;;;;;;;18.11;66.55;101338.72;5049241;28;20486;-58
2023/10/07 09:16:07;;;;;;;7.07;3.43;;;;;;;18.08;67.06;101345.16;5064022;28;20482;-59
2023/10/07 09:18:38;;;;;;;16.40;5.10;;;;;;;18.10;66.12;101337.06;5053067;28;20544;-59
2023/10/07 09:21:09;;;;;;;14.10;4.37;;;;;;;18.12;65.57;101328.97;5058655;28;20524;-59
2023/10/07 09:23:43;;;;;;;13.03;5.00;;;;;;;18.12;64.85;101340.41;5058608;28;20430;-58
2023/10/07 09:26:21;;;;;;;12.83;4.60;;;;;;;18.15;64.28;101345.41;5050088;28;20979;-58
2023/10/07 09:28:51;;;;;;;11.97;5.10;;;;;;;18.25;62.98;101341.25;5062503;28;20460;-58
2023/10/07 09:31:19;;;;;;;11.77;5.17;;;;;;;18.33;62.49;101346.94;5053247;28;20809;-59
2023/10/07 09:33:49;;;;;;;11.70;5.27;;;;;;;18.41;62.28;101339.44;5059383;28;20445;-58
2023/10/07 09:38:48;;;;;;;11.33;5.50;;;;;;;18.56;61.55;101342.41;5052888;28;20956;-58
2023/10/07 09:43:51;;;;;;;14.43;5.40;;;;;;;18.77;60.45;101345.19;5053870;28;20214;-57
2023/10/07 09:46:27;;;;;;;13.30;5.60;;;;;;;18.77;60.80;101356.63;5043644;28;21108;-58
2023/10/07 09:48:58;;;;;;;13.53;5.63;;;;;;;18.83;60.85;101363.78;5047233;28;20449;-58
2023/10/07 09:51:34;;;;;;;14.00;5.33;;;;;;;18.85;60.89;101359.38;5045634;28;20433;-59
2023/10/07 09:54:27;;;;;;;13.87;4.33;;;;;;;18.91;60.97;101357.13;5050749;28;20768;-58
2023/10/07 09:57:06;;;;;;;12.13;5.37;;;;;;;18.96;61.07;101360.56;5045629;28;20440;-59
2023/10/07 09:59:48;;;;;;;13.80;4.93;;;;;;;19.08;61.04;101363.44;5050635;28;20774;-59
2023/10/07 10:02:43;;;;;;;10.30;4.30;;;;;;;19.18;60.49;101351.50;5061918;28;20519;-58
2023/10/07 10:05:35;;;;;;;12.87;5.30;;;;;;;19.23;59.77;101354.13;5057426;28;20489;-58
2023/10/07 10:08:29;;;;;;;9.90;4.77;;;;;;;19.24;59.22;101358.66;5057391;28;20824;-58
2023/10/07 10:11:08;;;;;;;11.73;4.63;;;;;;;19.26;58.77;101364.03;5057953;28;21373;-57
2023/10/07 10:16:14;;;;;;;12.00;5.50;;;;;;;19.28;58.02;101364.50;5056836;28;20425;-57
2023/10/07 10:18:53;;;;;;;13.03;5.13;;;;;;;19.28;57.82;101364.50;5040510;28;20899;-58
2023/10/07 10:21:22;;;;;;;10.73;5.53;;;;;;;19.30;57.61;101354.34;5050511;28;20472;-58
2023/10/07 10:23:51;;;;;;;9.57;4.80;;;;;;;19.31;57.63;101360.94;5048086;28;20501;-59
2023/10/07 10:26:21;;;;;;;10.57;4.90;;;;;;;19.27;56.95;101349.34;5054305;28;20552;-58
2023/10/07 10:29:15;;;;;;;7.60;4.33;;;;;;;19.12;57.27;101347.19;5046906;28;20533;-57
2023/10/07 10:31:47;;;;;;;14.23;4.97;;;;;;;19.08;57.37;101343.41;5045236;28;20426;-58
2023/10/07 10:34:14;;;;;;;9.53;4.73;;;;;;;19.13;57.70;101346.00;5051820;28;20442;-59
2023/10/07 10:36:42;;;;;;;10.47;4.40;;;;;;;19.03;58.13;101340.78;5048507;28;20429;-57
2023/10/07 10:39:22;;;;;;;11.93;5.43;;;;;;;18.92;58.60;101342.44;5063101;28;20429;-60
2023/10/07 10:41:48;;;;;;;10.67;5.73;;;;;;;18.89;59.02;101340.31;5058861;28;20434;-58
2023/10/07 10:44:16;;;;;;;9.63;3.93;;;;;;;18.83;59.59;101344.59;5052902;28;20442;-58
2023/10/07 10:46:46;;;;;;;15.13;4.40;;;;;;;18.77;59.73;101339.47;5055752;28;20504;-58
2023/10/07 10:49:18;;;;;;;9.40;4.73;;;;;;;18.78;58.76;101344.00;5057475;28;20433;-58
2023/10/07 10:51:48;;;;;;;7.60;3.80;;;;;;;18.76;58.78;101338.63;5062605;28;20446;-59
2023/10/07 10:54:15;;;;;;;10.87;4.43;;;;;;;18.72;59.02;101334.81;5051553;28;20436;-59
2023/10/07 10:56:57;;;;;;;8.07;4.03;;;;;;;18.75;58.61;101331.25;5050752;28;20432;-59
2023/10/07 10:59:40;;;;;;;10.90;5.03;;;;;;;18.75;59.05;101330.38;5056457;28;20452;-58
2023/10/07 11:02:06;;;;;;;10.30;5.10;;;;;;;18.76;59.01;101318.59;5063817;28;20429;-59
2023/10/07 11:04:32;;;;;;;12.70;5.00;;;;;;;18.85;59.37;101325.03;5060783;28;20456;-59
2023/10/07 11:06:58;;;;;;;11.00;4.97;;;;;;;18.93;59.14;101314.66;5064042;28;20197;-59
2023/10/07 11:09:34;;;;;;;15.57;4.23;;;;;;;18.86;60.04;101309.53;5048498;28;20175;-58
2023/10/07 11:11:59;;;;;;;13.90;4.50;;;;;;;19.00;60.15;101314.88;5058712;28;20775;-58
2023/10/07 11:14:26;;;;;;;14.93;3.87;;;;;;;18.87;60.31;101307.53;5065325;28;20461;-57
2023/10/07 11:16:57;;;;;;;29.43;4.93;;;;;;;18.89;60.27;101303.09;5053654;28;20175;-58
2023/10/07 11:19:22;;;;;;;22.10;6.27;;;;;;;19.02;59.38;101301.88;5056599;28;20469;-59
2023/10/07 11:21:49;;;;;;;13.63;5.13;;;;;;;19.24;59.54;101292.81;5067420;28;21369;-58
2023/10/07 11:24:26;;;;;;;10.67;4.97;;;;;;;19.42;58.61;101277.00;5052216;28;20192;-58
2023/10/07 11:26:55;;;;;;;12.53;5.30;;;;;;;19.33;58.54;101270.59;5043168;28;20464;-58
2023/10/07 11:29:22;;;;;;;13.07;4.47;;;;;;;19.17;59.71;101269.63;5063746;28;20464;-58
2023/10/07 11:31:58;;;;;;;12.77;4.70;;;;;;;19.07;59.40;101275.88;5067200;28;20414;-58
2023/10/07 11:34:36;;;;;;;13.33;4.70;;;;;;;19.04;59.36;101276.63;5063092;28;20518;-57
2023/10/07 11:37:10;;;;;;;8.80;4.37;;;;;;;19.06;58.81;101265.63;5066878;28;20524;-59
2023/10/07 11:39:43;;;;;;;15.60;4.70;;;;;;;19.06;58.21;101273.41;5066514;28;20448;-58
2023/10/07 11:42:11;;;;;;;10.30;4.47;;;;;;;19.00;57.34;101264.22;5057139;28;20417;-58
2023/10/07 11:44:37;;;;;;;8.70;4.27;;;;;;;18.98;57.13;101263.75;5050685;28;20937;-57
2023/10/07 11:47:04;;;;;;;9.57;4.40;;;;;;;18.95;57.69;101255.88;5056091;28;20470;-58
2023/10/07 11:49:31;;;;;;;9.63;4.40;;;;;;;18.97;57.25;101258.38;5048191;28;20434;-59
2023/10/07 11:51:56;;;;;;;8.63;3.90;;;;;;;18.98;57.40;101254.31;5050198;28;20818;-59
2023/10/07 11:54:24;;;;;;;12.33;4.30;;;;;;;19.05;57.98;101243.94;5054848;28;20441;-57
2023/10/07 11:56:50;;;;;;;9.37;4.27;;;;;;;19.14;57.95;101243.78;5049926;28;20180;-58
2023/10/07 11:59:15;;;;;;;12.43;4.60;;;;;;;19.28;57.86;101245.09;5063158;28;20449;-58
2023/10/07 12:01:41;;;;;;;8.50;4.13;;;;;;;19.19;56.53;101252.13;5061282;28;20465;-58
2023/10/07 12:04:08;;;;;;;10.07;4.17;;;;;;;19.08;56.55;101248.09;5050449;28;20194;-58
2023/10/07 12:06:33;;;;;;;10.23;4.30;;;;;;;19.03;56.80;101251.22;5057299;28;20198;-58
2023/10/07 12:09:06;;;;;;;10.23;5.23;;;;;;;19.03;55.96;101246.34;5052281;28;20512;-58
2023/10/07 12:11:32;;;;;;;9.60;4.67;;;;;;;19.01;55.99;101242.16;5059351;28;20183;-58
2023/10/07 12:13:57;;;;;;;9.70;4.00;;;;;;;19.07;55.69;101241.53;5049591;28;20444;-57
2023/10/07 12:16:23;;;;;;;7.30;3.57;;;;;;;19.12;56.19;101238.41;5060794;28;20510;-58